Terminal Aerodrome Forecast
Issued by NWS Austin/San Antonio, TX

Home | Current Version | Previous Version | Text Only | Print | Product List | Glossary On
Versions: 1 2 3 4 5 6 7 8 9 10 11 12 13 14 15 16 17 18 19 20 21 22 23 24 25 26
000
FTUS44 KEWX 010500
TAFAUS
TAF
KAUS 010520Z 0106/0212 03003KT 2SM -DZ BR OVC006
      TEMPO 0109/0113 1/4SM FG OVC001
     FM011600 01004KT 1SM BR OVC003
     FM011900 02006KT 4SM BR OVC006=

USA.gov is the U.S. government's official web portal to all federal, state and local government web resources and services.